Nanoose Bay, British Columbia

Past 24 Hour Conditions

Date / Time
(PDT)
Conditions Temp
(°F)
Humidity
(%)
Dew Point
(°F)
Wind
(mph)
Pressure
(inches)
Visibility
(miles)
20 October 2014
21:00 N/A 53   89 50 calm N/A N/A
20:00 N/A 53   93 51 ENE 2 N/A N/A
19:00 N/A 53   93 51 NNW 3 N/A N/A
18:00 N/A 54 91 51 NE 3 N/A N/A
17:00 N/A 56 79 50 N 3 N/A N/A
16:00 N/A 58 78 51 calm N/A N/A
15:00 N/A 60   69 50 E 5 N/A N/A
14:00 N/A 60   68 50 ESE 8 N/A N/A
13:00 N/A 60   75 52 E 4 N/A N/A
12:00 N/A 57 84 52 ENE 3 N/A N/A
11:00 N/A 55 90 52 ESE 3 N/A N/A
10:00 N/A 55 89 51 SSW 3 N/A N/A
9:00 N/A 54 91 51 calm N/A N/A
8:00 N/A 55 88 51 E 6 N/A N/A
7:00 N/A 55 89 52 ESE 5 N/A N/A
6:00 N/A 55 89 52 NE 6 N/A N/A
5:00 N/A 55 88 51 E 9 N/A N/A
4:00 N/A 54 90 51 ENE 6 N/A N/A
3:00 N/A 54 92 51 SSE 3 N/A N/A
2:00 N/A 54 92 52 SSE 4 N/A N/A
1:00 N/A 54 93 52 W 6 N/A N/A
00:00 N/A 55 94 53 S 4 N/A N/A
19 October 2014
23:00 N/A 55 93 53 SE 2 N/A N/A
22:00 N/A 56 92 54 ENE 8 N/A N/A
21:00 N/A 55 93 53 NE 3 N/A N/A
N/A Not available
↑ Highest temperature
↓ Lowest temperature

If you require additional historical weather information, please visit Climate Data Online.

Date modified: